sensor_id;sensor_type;location;lat;lon;timestamp;temperature;humidity
31003;DHT22;23051;-6.372;106.786;2023-07-09T00:01:55;25.70;88.90
31003;DHT22;23051;-6.372;106.786;2023-07-09T00:03:56;25.70;88.90
31003;DHT22;23051;-6.372;106.786;2023-07-09T00:06:03;25.70;88.90
31003;DHT22;23051;-6.372;106.786;2023-07-09T00:08:12;25.70;89.00
31003;DHT22;23051;-6.372;106.786;2023-07-09T00:10:21;25.80;89.00
31003;DHT22;23051;-6.372;106.786;2023-07-09T00:12:25;25.70;88.90
31003;DHT22;23051;-6.372;106.786;2023-07-09T00:14:29;25.70;88.80
31003;DHT22;23051;-6.372;106.786;2023-07-09T00:16:34;25.70;88.80
31003;DHT22;23051;-6.372;106.786;2023-07-09T00:18:36;25.70;89.60
31003;DHT22;23051;-6.372;106.786;2023-07-09T00:20:37;25.80;88.90
31003;DHT22;23051;-6.372;106.786;2023-07-09T00:22:44;25.80;88.80
31003;DHT22;23051;-6.372;106.786;2023-07-09T00:24:53;25.80;88.80
31003;DHT22;23051;-6.372;106.786;2023-07-09T00:26:58;25.80;88.70
31003;DHT22;23051;-6.372;106.786;2023-07-09T00:29:00;25.90;88.80
31003;DHT22;23051;-6.372;106.786;2023-07-09T00:31:04;25.90;88.70
31003;DHT22;23051;-6.372;106.786;2023-07-09T00:33:11;25.90;88.70
31003;DHT22;23051;-6.372;106.786;2023-07-09T00:35:17;25.90;88.60
31003;DHT22;23051;-6.372;106.786;2023-07-09T00:37:26;25.90;88.60
31003;DHT22;23051;-6.372;106.786;2023-07-09T00:39:29;25.90;88.50
31003;DHT22;23051;-6.372;106.786;2023-07-09T00:41:36;25.90;88.40
31003;DHT22;23051;-6.372;106.786;2023-07-09T00:43:40;26.00;88.50
31003;DHT22;23051;-6.372;106.786;2023-07-09T00:45:42;26.00;88.40
31003;DHT22;23051;-6.372;106.786;2023-07-09T00:48:03;26.00;88.30
31003;DHT22;23051;-6.372;106.786;2023-07-09T00:52:32;26.10;88.30
31003;DHT22;23051;-6.372;106.786;2023-07-09T00:54:42;26.20;88.20
31003;DHT22;23051;-6.372;106.786;2023-07-09T00:56:52;26.20;88.10
31003;DHT22;23051;-6.372;106.786;2023-07-09T00:58:57;26.20;88.00
31003;DHT22;23051;-6.372;106.786;2023-07-09T01:01:04;26.20;88.00
31003;DHT22;23051;-6.372;106.786;2023-07-09T01:03:06;26.30;88.00
31003;DHT22;23051;-6.372;106.786;2023-07-09T01:05:10;26.30;87.80
31003;DHT22;23051;-6.372;106.786;2023-07-09T01:07:17;26.40;87.80
31003;DHT22;23051;-6.372;106.786;2023-07-09T01:09:23;26.30;87.70
31003;DHT22;23051;-6.372;106.786;2023-07-09T01:11:28;26.40;87.70
31003;DHT22;23051;-6.372;106.786;2023-07-09T01:13:33;26.40;87.70
31003;DHT22;23051;-6.372;106.786;2023-07-09T01:15:38;26.40;87.60
31003;DHT22;23051;-6.372;106.786;2023-07-09T01:17:42;26.50;87.70
31003;DHT22;23051;-6.372;106.786;2023-07-09T01:19:51;26.50;87.60
31003;DHT22;23051;-6.372;106.786;2023-07-09T01:21:55;26.50;87.60
31003;DHT22;23051;-6.372;106.786;2023-07-09T01:24:11;26.50;87.50
31003;DHT22;23051;-6.372;106.786;2023-07-09T01:26:20;26.60;87.50
31003;DHT22;23051;-6.372;106.786;2023-07-09T01:28:22;26.60;87.40
31003;DHT22;23051;-6.372;106.786;2023-07-09T01:30:34;26.60;87.30
31003;DHT22;23051;-6.372;106.786;2023-07-09T01:35:11;26.70;87.10
31003;DHT22;23051;-6.372;106.786;2023-07-09T01:37:20;26.70;87.00
31003;DHT22;23051;-6.372;106.786;2023-07-09T01:39:27;26.80;87.00
31003;DHT22;23051;-6.372;106.786;2023-07-09T01:41:31;26.90;87.00
31003;DHT22;23051;-6.372;106.786;2023-07-09T01:43:35;26.90;86.90
31003;DHT22;23051;-6.372;106.786;2023-07-09T01:45:41;26.90;86.80
31003;DHT22;23051;-6.372;106.786;2023-07-09T01:47:43;27.00;86.80
31003;DHT22;23051;-6.372;106.786;2023-07-09T01:49:45;27.00;86.70
31003;DHT22;23051;-6.372;106.786;2023-07-09T01:51:50;27.00;86.70
31003;DHT22;23051;-6.372;106.786;2023-07-09T01:53:56;27.00;86.60
31003;DHT22;23051;-6.372;106.786;2023-07-09T01:56:03;27.10;86.70
31003;DHT22;23051;-6.372;106.786;2023-07-09T01:58:08;27.10;86.70
31003;DHT22;23051;-6.372;106.786;2023-07-09T02:00:15;27.10;86.50
31003;DHT22;23051;-6.372;106.786;2023-07-09T02:02:19;27.10;86.40
31003;DHT22;23051;-6.372;106.786;2023-07-09T02:04:26;27.20;86.50
31003;DHT22;23051;-6.372;106.786;2023-07-09T02:06:35;27.20;86.40
31003;DHT22;23051;-6.372;106.786;2023-07-09T02:08:37;27.30;86.40
31003;DHT22;23051;-6.372;106.786;2023-07-09T02:10:44;27.30;86.40
31003;DHT22;23051;-6.372;106.786;2023-07-09T02:12:48;27.30;86.30
31003;DHT22;23051;-6.372;106.786;2023-07-09T02:14:50;27.40;86.40
31003;DHT22;23051;-6.372;106.786;2023-07-09T02:18:55;27.40;86.10
31003;DHT22;23051;-6.372;106.786;2023-07-09T02:20:57;27.50;86.10
31003;DHT22;23051;-6.372;106.786;2023-07-09T02:22:58;27.60;86.00
31003;DHT22;23051;-6.372;106.786;2023-07-09T02:24:59;27.60;85.90
31003;DHT22;23051;-6.372;106.786;2023-07-09T02:27:07;27.60;85.80
31003;DHT22;23051;-6.372;106.786;2023-07-09T02:29:16;27.70;85.80
31003;DHT22;23051;-6.372;106.786;2023-07-09T02:31:20;27.70;85.70
31003;DHT22;23051;-6.372;106.786;2023-07-09T02:33:22;27.80;85.70
31003;DHT22;23051;-6.372;106.786;2023-07-09T02:35:26;27.80;85.60
31003;DHT22;23051;-6.372;106.786;2023-07-09T02:37:28;27.80;85.60
31003;DHT22;23051;-6.372;106.786;2023-07-09T02:39:35;27.90;85.60
31003;DHT22;23051;-6.372;106.786;2023-07-09T02:41:36;27.90;85.60
31003;DHT22;23051;-6.372;106.786;2023-07-09T02:43:38;28.00;85.60
31003;DHT22;23051;-6.372;106.786;2023-07-09T02:45:39;28.00;85.50
31003;DHT22;23051;-6.372;106.786;2023-07-09T02:47:46;28.10;85.40
31003;DHT22;23051;-6.372;106.786;2023-07-09T02:49:50;28.10;85.30
31003;DHT22;23051;-6.372;106.786;2023-07-09T02:53:54;28.10;85.20
31003;DHT22;23051;-6.372;106.786;2023-07-09T02:56:00;28.20;85.20
31003;DHT22;23051;-6.372;106.786;2023-07-09T02:58:02;28.20;85.20
31003;DHT22;23051;-6.372;106.786;2023-07-09T03:00:04;28.20;85.20
31003;DHT22;23051;-6.372;106.786;2023-07-09T03:02:09;28.30;85.10
31003;DHT22;23051;-6.372;106.786;2023-07-09T03:04:11;28.30;85.00
31003;DHT22;23051;-6.372;106.786;2023-07-09T03:06:15;28.40;85.00
31003;DHT22;23051;-6.372;106.786;2023-07-09T03:08:17;28.40;84.80
31003;DHT22;23051;-6.372;106.786;2023-07-09T03:10:19;28.50;84.80
31003;DHT22;23051;-6.372;106.786;2023-07-09T03:12:23;28.50;84.80
31003;DHT22;23051;-6.372;106.786;2023-07-09T03:14:25;28.60;84.70
31003;DHT22;23051;-6.372;106.786;2023-07-09T03:16:32;28.60;84.50
31003;DHT22;23051;-6.372;106.786;2023-07-09T03:18:34;28.70;84.40
31003;DHT22;23051;-6.372;106.786;2023-07-09T03:20:38;28.80;84.20
31003;DHT22;23051;-6.372;106.786;2023-07-09T03:22:40;28.90;84.20
31003;DHT22;23051;-6.372;106.786;2023-07-09T03:24:42;29.00;84.00
31003;DHT22;23051;-6.372;106.786;2023-07-09T03:26:49;29.00;83.90
31003;DHT22;23051;-6.372;106.786;2023-07-09T03:28:53;29.10;84.10
31003;DHT22;23051;-6.372;106.786;2023-07-09T03:30:58;29.20;83.70
31003;DHT22;23051;-6.372;106.786;2023-07-09T03:33:02;29.20;83.70
31003;DHT22;23051;-6.372;106.786;2023-07-09T03:35:07;29.20;83.40
31003;DHT22;23051;-6.372;106.786;2023-07-09T03:37:13;29.30;83.50
31003;DHT22;23051;-6.372;106.786;2023-07-09T03:39:18;29.30;83.40
31003;DHT22;23051;-6.372;106.786;2023-07-09T03:41:24;29.30;83.40
31003;DHT22;23051;-6.372;106.786;2023-07-09T03:43:32;29.40;83.40
31003;DHT22;23051;-6.372;106.786;2023-07-09T03:45:34;29.50;83.30
31003;DHT22;23051;-6.372;106.786;2023-07-09T03:47:39;29.60;83.20
31003;DHT22;23051;-6.372;106.786;2023-07-09T03:49:42;29.60;83.10
31003;DHT22;23051;-6.372;106.786;2023-07-09T03:51:46;29.60;83.10
31003;DHT22;23051;-6.372;106.786;2023-07-09T03:53:50;29.60;83.00
31003;DHT22;23051;-6.372;106.786;2023-07-09T03:55:55;29.60;83.00
31003;DHT22;23051;-6.372;106.786;2023-07-09T03:58:03;29.70;83.00
31003;DHT22;23051;-6.372;106.786;2023-07-09T04:00:05;29.70;82.80
31003;DHT22;23051;-6.372;106.786;2023-07-09T04:02:10;29.80;82.80
31003;DHT22;23051;-6.372;106.786;2023-07-09T04:04:13;29.80;82.70
31003;DHT22;23051;-6.372;106.786;2023-07-09T04:08:26;29.80;82.70
31003;DHT22;23051;-6.372;106.786;2023-07-09T04:10:28;29.90;82.80
31003;DHT22;23051;-6.372;106.786;2023-07-09T04:12:30;29.90;82.80
31003;DHT22;23051;-6.372;106.786;2023-07-09T04:14:32;29.90;82.80
31003;DHT22;23051;-6.372;106.786;2023-07-09T04:16:37;29.90;82.80
31003;DHT22;23051;-6.372;106.786;2023-07-09T04:18:41;29.90;82.80
31003;DHT22;23051;-6.372;106.786;2023-07-09T04:20:57;29.90;82.80
31003;DHT22;23051;-6.372;106.786;2023-07-09T04:23:03;29.90;82.80
31003;DHT22;23051;-6.372;106.786;2023-07-09T04:25:17;30.00;82.80
31003;DHT22;23051;-6.372;106.786;2023-07-09T04:27:20;30.00;83.40
31003;DHT22;23051;-6.372;106.786;2023-07-09T04:29:23;30.10;82.60
31003;DHT22;23051;-6.372;106.786;2023-07-09T04:31:25;30.10;82.40
31003;DHT22;23051;-6.372;106.786;2023-07-09T04:35:36;30.30;82.00
31003;DHT22;23051;-6.372;106.786;2023-07-09T04:37:41;30.40;81.90
31003;DHT22;23051;-6.372;106.786;2023-07-09T04:39:44;30.40;81.80
31003;DHT22;23051;-6.372;106.786;2023-07-09T04:41:46;30.50;81.90
31003;DHT22;23051;-6.372;106.786;2023-07-09T04:43:48;30.50;81.90
31003;DHT22;23051;-6.372;106.786;2023-07-09T04:45:50;30.50;81.80
31003;DHT22;23051;-6.372;106.786;2023-07-09T04:47:57;30.60;81.60
31003;DHT22;23051;-6.372;106.786;2023-07-09T04:50:02;30.70;81.50
31003;DHT22;23051;-6.372;106.786;2023-07-09T04:52:07;30.80;81.50
31003;DHT22;23051;-6.372;106.786;2023-07-09T04:54:20;30.80;82.10
31003;DHT22;23051;-6.372;106.786;2023-07-09T04:58:31;30.80;81.40
31003;DHT22;23051;-6.372;106.786;2023-07-09T05:00:32;30.80;81.50
31003;DHT22;23051;-6.372;106.786;2023-07-09T05:02:34;30.80;81.40
31003;DHT22;23051;-6.372;106.786;2023-07-09T05:04:38;30.90;81.30
31003;DHT22;23051;-6.372;106.786;2023-07-09T05:06:45;30.80;81.20
31003;DHT22;23051;-6.372;106.786;2023-07-09T05:08:47;30.90;81.30
31003;DHT22;23051;-6.372;106.786;2023-07-09T05:10:57;31.00;81.10
31003;DHT22;23051;-6.372;106.786;2023-07-09T05:13:01;31.00;81.00
31003;DHT22;23051;-6.372;106.786;2023-07-09T05:15:06;31.10;80.90
31003;DHT22;23051;-6.372;106.786;2023-07-09T05:17:10;31.20;80.70
31003;DHT22;23051;-6.372;106.786;2023-07-09T05:19:15;31.30;80.60
31003;DHT22;23051;-6.372;106.786;2023-07-09T05:21:31;31.30;80.50
31003;DHT22;23051;-6.372;106.786;2023-07-09T05:23:32;31.40;80.50
31003;DHT22;23051;-6.372;106.786;2023-07-09T05:25:36;31.40;80.50
31003;DHT22;23051;-6.372;106.786;2023-07-09T05:27:46;31.40;80.40
31003;DHT22;23051;-6.372;106.786;2023-07-09T05:29:54;31.50;80.40
31003;DHT22;23051;-6.372;106.786;2023-07-09T05:31:59;31.50;80.30
31003;DHT22;23051;-6.372;106.786;2023-07-09T05:34:01;31.50;81.10
31003;DHT22;23051;-6.372;106.786;2023-07-09T05:36:06;31.50;80.30
31003;DHT22;23051;-6.372;106.786;2023-07-09T05:38:08;31.50;80.40
31003;DHT22;23051;-6.372;106.786;2023-07-09T05:40:09;31.50;80.40
31003;DHT22;23051;-6.372;106.786;2023-07-09T05:44:20;31.50;80.30
31003;DHT22;23051;-6.372;106.786;2023-07-09T05:46:27;31.60;80.30
31003;DHT22;23051;-6.372;106.786;2023-07-09T05:48:28;31.80;80.20
31003;DHT22;23051;-6.372;106.786;2023-07-09T05:50:35;32.10;79.60
31003;DHT22;23051;-6.372;106.786;2023-07-09T05:52:36;32.40;78.90
31003;DHT22;23051;-6.372;106.786;2023-07-09T05:54:49;32.70;78.30
31003;DHT22;23051;-6.372;106.786;2023-07-09T06:00:58;33.60;76.40
31003;DHT22;23051;-6.372;106.786;2023-07-09T06:03:02;33.80;75.90
31003;DHT22;23051;-6.372;106.786;2023-07-09T06:05:08;34.00;75.50
31003;DHT22;23051;-6.372;106.786;2023-07-09T06:07:12;34.20;75.20
31003;DHT22;23051;-6.372;106.786;2023-07-09T06:09:19;34.40;74.90
31003;DHT22;23051;-6.372;106.786;2023-07-09T06:11:21;34.50;74.70
31003;DHT22;23051;-6.372;106.786;2023-07-09T06:13:25;34.50;74.60
31003;DHT22;23051;-6.372;106.786;2023-07-09T06:15:30;34.50;74.60
31003;DHT22;23051;-6.372;106.786;2023-07-09T06:17:36;34.60;74.50
31003;DHT22;23051;-6.372;106.786;2023-07-09T06:19:38;34.70;74.40
31003;DHT22;23051;-6.372;106.786;2023-07-09T06:21:40;34.80;74.30
31003;DHT22;23051;-6.372;106.786;2023-07-09T06:23:45;34.90;74.10
31003;DHT22;23051;-6.372;106.786;2023-07-09T06:25:50;34.90;74.00
31003;DHT22;23051;-6.372;106.786;2023-07-09T06:27:57;34.90;74.10
31003;DHT22;23051;-6.372;106.786;2023-07-09T06:30:00;34.90;74.20
31003;DHT22;23051;-6.372;106.786;2023-07-09T06:32:05;35.00;74.10
31003;DHT22;23051;-6.372;106.786;2023-07-09T06:34:09;35.10;74.00
31003;DHT22;23051;-6.372;106.786;2023-07-09T06:36:13;35.10;73.80
31003;DHT22;23051;-6.372;106.786;2023-07-09T06:38:15;35.30;73.70
31003;DHT22;23051;-6.372;106.786;2023-07-09T06:40:16;35.30;73.50
31003;DHT22;23051;-6.372;106.786;2023-07-09T06:42:21;35.50;73.30
31003;DHT22;23051;-6.372;106.786;2023-07-09T06:44:22;35.60;73.10
31003;DHT22;23051;-6.372;106.786;2023-07-09T06:46:32;35.70;72.90
31003;DHT22;23051;-6.372;106.786;2023-07-09T06:48:37;35.80;72.70
31003;DHT22;23051;-6.372;106.786;2023-07-09T06:50:41;35.90;72.50
31003;DHT22;23051;-6.372;106.786;2023-07-09T06:52:47;35.90;72.30
31003;DHT22;23051;-6.372;106.786;2023-07-09T06:54:53;35.90;72.30
31003;DHT22;23051;-6.372;106.786;2023-07-09T06:56:59;36.00;72.30
31003;DHT22;23051;-6.372;106.786;2023-07-09T06:59:03;36.10;72.20
31003;DHT22;23051;-6.372;106.786;2023-07-09T07:01:10;36.10;72.10
31003;DHT22;23051;-6.372;106.786;2023-07-09T07:03:14;36.10;71.90
31003;DHT22;23051;-6.372;106.786;2023-07-09T07:05:16;36.10;71.90
31003;DHT22;23051;-6.372;106.786;2023-07-09T07:07:20;36.20;72.00
31003;DHT22;23051;-6.372;106.786;2023-07-09T07:09:22;36.20;71.80
31003;DHT22;23051;-6.372;106.786;2023-07-09T07:11:26;36.30;71.80
31003;DHT22;23051;-6.372;106.786;2023-07-09T07:13:37;36.30;71.80
31003;DHT22;23051;-6.372;106.786;2023-07-09T07:15:39;36.20;71.80
31003;DHT22;23051;-6.372;106.786;2023-07-09T07:17:44;36.30;71.80
31003;DHT22;23051;-6.372;106.786;2023-07-09T07:19:49;36.40;71.80
31003;DHT22;23051;-6.372;106.786;2023-07-09T07:21:51;36.40;71.40
31003;DHT22;23051;-6.372;106.786;2023-07-09T07:23:57;36.50;71.30
31003;DHT22;23051;-6.372;106.786;2023-07-09T07:25:59;36.50;71.20
31003;DHT22;23051;-6.372;106.786;2023-07-09T07:28:06;36.50;71.00
31003;DHT22;23051;-6.372;106.786;2023-07-09T07:32:14;36.40;71.40
31003;DHT22;23051;-6.372;106.786;2023-07-09T07:34:23;36.30;71.50
31003;DHT22;23051;-6.372;106.786;2023-07-09T07:36:25;36.30;71.70
31003;DHT22;23051;-6.372;106.786;2023-07-09T07:38:31;36.30;71.80
31003;DHT22;23051;-6.372;106.786;2023-07-09T07:40:33;36.30;71.70
31003;DHT22;23051;-6.372;106.786;2023-07-09T07:42:37;36.30;71.50
31003;DHT22;23051;-6.372;106.786;2023-07-09T07:44:38;36.40;71.40
31003;DHT22;23051;-6.372;106.786;2023-07-09T07:46:39;36.40;71.40
31003;DHT22;23051;-6.372;106.786;2023-07-09T07:48:41;36.30;71.50
31003;DHT22;23051;-6.372;106.786;2023-07-09T07:50:45;36.30;71.70
31003;DHT22;23051;-6.372;106.786;2023-07-09T07:52:47;36.20;71.70
31003;DHT22;23051;-6.372;106.786;2023-07-09T07:54:53;36.20;71.60
31003;DHT22;23051;-6.372;106.786;2023-07-09T07:56:58;36.20;71.50
31003;DHT22;23051;-6.372;106.786;2023-07-09T07:59:02;36.30;71.50
31003;DHT22;23051;-6.372;106.786;2023-07-09T08:01:04;36.30;71.40
31003;DHT22;23051;-6.372;106.786;2023-07-09T08:03:08;36.30;71.30
31003;DHT22;23051;-6.372;106.786;2023-07-09T08:05:12;36.40;71.20
31003;DHT22;23051;-6.372;106.786;2023-07-09T08:07:15;36.30;71.10
31003;DHT22;23051;-6.372;106.786;2023-07-09T08:09:17;36.30;71.20
31003;DHT22;23051;-6.372;106.786;2023-07-09T08:11:21;36.30;71.20
31003;DHT22;23051;-6.372;106.786;2023-07-09T08:13:27;36.30;71.20
31003;DHT22;23051;-6.372;106.786;2023-07-09T08:15:31;36.30;71.30
31003;DHT22;23051;-6.372;106.786;2023-07-09T08:17:35;36.20;71.30
31003;DHT22;23051;-6.372;106.786;2023-07-09T08:21:46;36.00;71.70
31003;DHT22;23051;-6.372;106.786;2023-07-09T08:23:50;36.00;71.80
31003;DHT22;23051;-6.372;106.786;2023-07-09T08:25:58;36.00;71.70
31003;DHT22;23051;-6.372;106.786;2023-07-09T08:28:02;35.90;71.60
31003;DHT22;23051;-6.372;106.786;2023-07-09T08:30:21;35.90;71.70
31003;DHT22;23051;-6.372;106.786;2023-07-09T08:32:27;35.80;71.70
31003;DHT22;23051;-6.372;106.786;2023-07-09T08:34:30;35.80;71.80
31003;DHT22;23051;-6.372;106.786;2023-07-09T08:36:39;35.80;71.70
31003;DHT22;23051;-6.372;106.786;2023-07-09T08:38:42;35.90;71.70
31003;DHT22;23051;-6.372;106.786;2023-07-09T08:43:06;35.90;71.30
31003;DHT22;23051;-6.372;106.786;2023-07-09T08:49:48;36.00;71.00
31003;DHT22;23051;-6.372;106.786;2023-07-09T08:51:54;36.10;70.90
31003;DHT22;23051;-6.372;106.786;2023-07-09T08:53:59;36.10;70.80
31003;DHT22;23051;-6.372;106.786;2023-07-09T08:56:09;36.10;70.70
31003;DHT22;23051;-6.372;106.786;2023-07-09T08:58:29;36.10;70.70
31003;DHT22;23051;-6.372;106.786;2023-07-09T09:00:40;36.00;70.70
31003;DHT22;23051;-6.372;106.786;2023-07-09T09:04:53;35.70;71.40
31003;DHT22;23051;-6.372;106.786;2023-07-09T09:11:25;35.10;72.50
31003;DHT22;23051;-6.372;106.786;2023-07-09T09:13:39;34.90;72.80
31003;DHT22;23051;-6.372;106.786;2023-07-09T09:15:43;34.80;73.00
31003;DHT22;23051;-6.372;106.786;2023-07-09T09:17:50;34.70;73.20
31003;DHT22;23051;-6.372;106.786;2023-07-09T09:19:56;34.70;73.50
31003;DHT22;23051;-6.372;106.786;2023-07-09T09:22:05;34.50;73.60
31003;DHT22;23051;-6.372;106.786;2023-07-09T09:24:36;34.40;73.60
31003;DHT22;23051;-6.372;106.786;2023-07-09T09:26:42;34.40;73.80
31003;DHT22;23051;-6.372;106.786;2023-07-09T09:28:50;34.30;74.00
31003;DHT22;23051;-6.372;106.786;2023-07-09T09:30:57;34.20;74.10
31003;DHT22;23051;-6.372;106.786;2023-07-09T09:33:05;34.10;74.20
31003;DHT22;23051;-6.372;106.786;2023-07-09T09:35:15;34.00;74.30
31003;DHT22;23051;-6.372;106.786;2023-07-09T09:39:29;34.00;75.20
31003;DHT22;23051;-6.372;106.786;2023-07-09T09:43:44;33.90;74.20
31003;DHT22;23051;-6.372;106.786;2023-07-09T09:45:50;33.90;74.20
31003;DHT22;23051;-6.372;106.786;2023-07-09T09:48:00;33.90;74.30
31003;DHT22;23051;-6.372;106.786;2023-07-09T09:50:13;33.80;74.20
31003;DHT22;23051;-6.372;106.786;2023-07-09T09:52:18;33.80;74.20
31003;DHT22;23051;-6.372;106.786;2023-07-09T09:54:24;33.70;75.20
31003;DHT22;23051;-6.372;106.786;2023-07-09T09:56:34;33.70;74.50
31003;DHT22;23051;-6.372;106.786;2023-07-09T09:58:42;33.70;74.50
31003;DHT22;23051;-6.372;106.786;2023-07-09T10:00:51;33.60;74.50
31003;DHT22;23051;-6.372;106.786;2023-07-09T10:03:03;33.60;74.70
31003;DHT22;23051;-6.372;106.786;2023-07-09T10:05:14;33.50;74.70
31003;DHT22;23051;-6.372;106.786;2023-07-09T10:07:22;33.40;74.80
31003;DHT22;23051;-6.372;106.786;2023-07-09T10:11:47;33.30;74.90
31003;DHT22;23051;-6.372;106.786;2023-07-09T10:13:52;33.30;75.00
31003;DHT22;23051;-6.372;106.786;2023-07-09T10:16:06;33.30;75.10
31003;DHT22;23051;-6.372;106.786;2023-07-09T10:20:18;33.30;75.10
31003;DHT22;23051;-6.372;106.786;2023-07-09T10:33:26;33.10;75.30
31003;DHT22;23051;-6.372;106.786;2023-07-09T10:39:32;33.00;75.50
31003;DHT22;23051;-6.372;106.786;2023-07-09T10:41:35;33.00;75.30
31003;DHT22;23051;-6.372;106.786;2023-07-09T10:43:44;33.10;74.90
31003;DHT22;23051;-6.372;106.786;2023-07-09T10:45:54;33.20;74.70
31003;DHT22;23051;-6.372;106.786;2023-07-09T10:48:04;33.30;74.60
31003;DHT22;23051;-6.372;106.786;2023-07-09T10:50:15;33.30;74.50
31003;DHT22;23051;-6.372;106.786;2023-07-09T10:52:23;33.30;74.40
31003;DHT22;23051;-6.372;106.786;2023-07-09T10:56:40;33.40;74.20
31003;DHT22;23051;-6.372;106.786;2023-07-09T11:00:56;33.50;74.00
31003;DHT22;23051;-6.372;106.786;2023-07-09T11:03:04;33.50;73.90
31003;DHT22;23051;-6.372;106.786;2023-07-09T11:05:07;33.50;73.90
31003;DHT22;23051;-6.372;106.786;2023-07-09T11:07:14;33.60;73.90
31003;DHT22;23051;-6.372;106.786;2023-07-09T11:09:41;33.60;73.80
31003;DHT22;23051;-6.372;106.786;2023-07-09T11:11:49;33.60;73.70
31003;DHT22;23051;-6.372;106.786;2023-07-09T11:13:55;33.60;73.60
31003;DHT22;23051;-6.372;106.786;2023-07-09T11:15:59;33.60;73.70
31003;DHT22;23051;-6.372;106.786;2023-07-09T11:18:01;33.60;73.60
31003;DHT22;23051;-6.372;106.786;2023-07-09T11:20:34;33.60;73.50
31003;DHT22;23051;-6.372;106.786;2023-07-09T11:22:53;33.60;73.40
31003;DHT22;23051;-6.372;106.786;2023-07-09T11:27:02;33.60;73.50
31003;DHT22;23051;-6.372;106.786;2023-07-09T11:29:23;33.50;73.50
31003;DHT22;23051;-6.372;106.786;2023-07-09T11:31:37;33.50;73.60
31003;DHT22;23051;-6.372;106.786;2023-07-09T11:33:46;33.50;73.70
31003;DHT22;23051;-6.372;106.786;2023-07-09T11:35:53;33.50;73.70
31003;DHT22;23051;-6.372;106.786;2023-07-09T11:38:08;33.50;73.70
31003;DHT22;23051;-6.372;106.786;2023-07-09T11:40:15;33.50;73.60
31003;DHT22;23051;-6.372;106.786;2023-07-09T11:44:32;33.50;73.60
31003;DHT22;23051;-6.372;106.786;2023-07-09T11:46:36;33.50;73.70
31003;DHT22;23051;-6.372;106.786;2023-07-09T11:48:41;33.50;73.70
31003;DHT22;23051;-6.372;106.786;2023-07-09T11:50:49;33.50;73.70
31003;DHT22;23051;-6.372;106.786;2023-07-09T11:53:34;33.40;73.70
31003;DHT22;23051;-6.372;106.786;2023-07-09T11:57:27;33.40;73.60
31003;DHT22;23051;-6.372;106.786;2023-07-09T11:59:41;33.40;73.70
31003;DHT22;23051;-6.372;106.786;2023-07-09T12:01:46;33.40;73.70
31003;DHT22;23051;-6.372;106.786;2023-07-09T12:05:59;33.40;73.60
31003;DHT22;23051;-6.372;106.786;2023-07-09T12:08:08;33.40;73.60
31003;DHT22;23051;-6.372;106.786;2023-07-09T12:12:25;33.40;73.80
31003;DHT22;23051;-6.372;106.786;2023-07-09T12:14:33;33.30;73.70
31003;DHT22;23051;-6.372;106.786;2023-07-09T12:16:42;33.30;73.80
31003;DHT22;23051;-6.372;106.786;2023-07-09T12:18:46;33.30;73.70
31003;DHT22;23051;-6.372;106.786;2023-07-09T12:20:54;33.30;73.70
31003;DHT22;23051;-6.372;106.786;2023-07-09T12:22:58;33.30;73.70
31003;DHT22;23051;-6.372;106.786;2023-07-09T12:25:07;33.30;73.70
31003;DHT22;23051;-6.372;106.786;2023-07-09T12:29:26;33.00;74.20
31003;DHT22;23051;-6.372;106.786;2023-07-09T12:31:30;32.80;74.50
31003;DHT22;23051;-6.372;106.786;2023-07-09T12:33:34;32.70;74.90
31003;DHT22;23051;-6.372;106.786;2023-07-09T12:35:38;32.60;75.00
31003;DHT22;23051;-6.372;106.786;2023-07-09T12:38:00;32.50;75.30
31003;DHT22;23051;-6.372;106.786;2023-07-09T12:40:12;32.30;75.60
31003;DHT22;23051;-6.372;106.786;2023-07-09T12:42:19;32.20;76.00
31003;DHT22;23051;-6.372;106.786;2023-07-09T12:46:40;32.10;76.20
31003;DHT22;23051;-6.372;106.786;2023-07-09T12:48:42;32.10;76.20
31003;DHT22;23051;-6.372;106.786;2023-07-09T12:50:49;32.00;76.20
31003;DHT22;23051;-6.372;106.786;2023-07-09T12:57:19;31.90;76.30
31003;DHT22;23051;-6.372;106.786;2023-07-09T13:01:32;31.90;76.40
31003;DHT22;23051;-6.372;106.786;2023-07-09T13:03:37;31.80;76.40
31003;DHT22;23051;-6.372;106.786;2023-07-09T13:05:53;31.90;76.40
31003;DHT22;23051;-6.372;106.786;2023-07-09T13:08:02;31.80;76.40
31003;DHT22;23051;-6.372;106.786;2023-07-09T13:10:15;31.90;76.40
31003;DHT22;23051;-6.372;106.786;2023-07-09T13:12:27;31.90;76.10
31003;DHT22;23051;-6.372;106.786;2023-07-09T13:14:31;32.00;75.90
31003;DHT22;23051;-6.372;106.786;2023-07-09T13:16:38;32.20;75.70
31003;DHT22;23051;-6.372;106.786;2023-07-09T13:18:40;32.20;75.40
31003;DHT22;23051;-6.372;106.786;2023-07-09T13:20:44;32.30;75.20
31003;DHT22;23051;-6.372;106.786;2023-07-09T13:22:49;32.40;75.00
31003;DHT22;23051;-6.372;106.786;2023-07-09T13:24:51;32.40;74.70
31003;DHT22;23051;-6.372;106.786;2023-07-09T13:26:53;32.50;74.60
31003;DHT22;23051;-6.372;106.786;2023-07-09T13:28:54;32.60;74.50
31003;DHT22;23051;-6.372;106.786;2023-07-09T13:31:12;32.60;74.40
31003;DHT22;23051;-6.372;106.786;2023-07-09T13:33:19;32.60;74.20
31003;DHT22;23051;-6.372;106.786;2023-07-09T13:35:26;32.70;74.30
31003;DHT22;23051;-6.372;106.786;2023-07-09T13:37:28;32.60;74.20
31003;DHT22;23051;-6.372;106.786;2023-07-09T13:39:37;32.60;74.40
31003;DHT22;23051;-6.372;106.786;2023-07-09T13:41:45;32.60;74.30
31003;DHT22;23051;-6.372;106.786;2023-07-09T13:43:48;32.60;74.30
31003;DHT22;23051;-6.372;106.786;2023-07-09T13:47:54;32.60;74.30
31003;DHT22;23051;-6.372;106.786;2023-07-09T13:49:56;32.60;74.30
31003;DHT22;23051;-6.372;106.786;2023-07-09T13:54:03;32.60;74.30
31003;DHT22;23051;-6.372;106.786;2023-07-09T13:56:07;32.60;74.30
31003;DHT22;23051;-6.372;106.786;2023-07-09T13:58:10;32.60;74.40
31003;DHT22;23051;-6.372;106.786;2023-07-09T14:00:13;32.60;74.40
31003;DHT22;23051;-6.372;106.786;2023-07-09T14:04:21;32.60;74.40
31003;DHT22;23051;-6.372;106.786;2023-07-09T14:06:27;32.60;74.40
31003;DHT22;23051;-6.372;106.786;2023-07-09T14:08:40;32.60;74.40
31003;DHT22;23051;-6.372;106.786;2023-07-09T14:10:51;32.50;74.40
31003;DHT22;23051;-6.372;106.786;2023-07-09T14:12:55;32.50;74.50
31003;DHT22;23051;-6.372;106.786;2023-07-09T14:15:04;32.50;74.60
31003;DHT22;23051;-6.372;106.786;2023-07-09T14:17:13;32.40;74.50
31003;DHT22;23051;-6.372;106.786;2023-07-09T14:19:20;32.50;74.60
31003;DHT22;23051;-6.372;106.786;2023-07-09T14:21:25;32.40;74.60
31003;DHT22;23051;-6.372;106.786;2023-07-09T14:23:30;32.40;74.70
31003;DHT22;23051;-6.372;106.786;2023-07-09T14:27:41;32.30;74.70
31003;DHT22;23051;-6.372;106.786;2023-07-09T14:29:45;32.40;74.80